sensor_id;sensor_type;location;lat;lon;timestamp;P1;durP1;ratioP1;P2;durP2;ratioP2
20241;SDS011;10279;46.388;8.116;2023-07-24T00:01:57;17.63;;;12.55;;
20241;SDS011;10279;46.388;8.116;2023-07-24T00:04:25;17.90;;;12.50;;
20241;SDS011;10279;46.388;8.116;2023-07-24T00:06:52;17.73;;;11.63;;
20241;SDS011;10279;46.388;8.116;2023-07-24T00:09:21;19.00;;;12.80;;
20241;SDS011;10279;46.388;8.116;2023-07-24T00:11:48;17.13;;;11.82;;
20241;SDS011;10279;46.388;8.116;2023-07-24T00:14:16;18.30;;;13.07;;
20241;SDS011;10279;46.388;8.116;2023-07-24T00:16:43;19.55;;;12.77;;
20241;SDS011;10279;46.388;8.116;2023-07-24T00:19:11;19.15;;;12.52;;
20241;SDS011;10279;46.388;8.116;2023-07-24T00:21:38;17.05;;;11.73;;
20241;SDS011;10279;46.388;8.116;2023-07-24T00:24:06;17.00;;;12.18;;
20241;SDS011;10279;46.388;8.116;2023-07-24T00:26:33;17.33;;;12.23;;
20241;SDS011;10279;46.388;8.116;2023-07-24T00:29:01;18.42;;;11.93;;
20241;SDS011;10279;46.388;8.116;2023-07-24T00:31:28;18.10;;;12.38;;
20241;SDS011;10279;46.388;8.116;2023-07-24T00:33:56;19.88;;;13.02;;
20241;SDS011;10279;46.388;8.116;2023-07-24T00:36:26;20.58;;;12.85;;
20241;SDS011;10279;46.388;8.116;2023-07-24T00:38:54;19.30;;;12.65;;
20241;SDS011;10279;46.388;8.116;2023-07-24T00:41:22;19.17;;;12.63;;
20241;SDS011;10279;46.388;8.116;2023-07-24T00:43:49;19.50;;;11.93;;
20241;SDS011;10279;46.388;8.116;2023-07-24T00:46:17;19.27;;;12.20;;
20241;SDS011;10279;46.388;8.116;2023-07-24T00:48:44;18.20;;;12.82;;
20241;SDS011;10279;46.388;8.116;2023-07-24T00:51:12;18.77;;;12.88;;
20241;SDS011;10279;46.388;8.116;2023-07-24T00:53:39;15.98;;;11.75;;
20241;SDS011;10279;46.388;8.116;2023-07-24T00:56:07;18.23;;;12.30;;
20241;SDS011;10279;46.388;8.116;2023-07-24T00:58:35;18.70;;;12.35;;
20241;SDS011;10279;46.388;8.116;2023-07-24T01:01:05;17.48;;;11.68;;
20241;SDS011;10279;46.388;8.116;2023-07-24T01:03:33;18.02;;;11.45;;
20241;SDS011;10279;46.388;8.116;2023-07-24T01:06:01;19.02;;;12.75;;
20241;SDS011;10279;46.388;8.116;2023-07-24T01:08:29;18.75;;;11.73;;
20241;SDS011;10279;46.388;8.116;2023-07-24T01:10:57;15.43;;;11.05;;
20241;SDS011;10279;46.388;8.116;2023-07-24T01:13:29;17.85;;;11.90;;
20241;SDS011;10279;46.388;8.116;2023-07-24T01:16:03;17.85;;;11.98;;
20241;SDS011;10279;46.388;8.116;2023-07-24T01:18:36;18.48;;;11.95;;
20241;SDS011;10279;46.388;8.116;2023-07-24T01:21:08;16.40;;;11.43;;
20241;SDS011;10279;46.388;8.116;2023-07-24T01:26:03;19.08;;;12.27;;
20241;SDS011;10279;46.388;8.116;2023-07-24T01:28:32;17.30;;;12.52;;
20241;SDS011;10279;46.388;8.116;2023-07-24T01:30:59;16.42;;;11.98;;
20241;SDS011;10279;46.388;8.116;2023-07-24T01:33:27;17.50;;;12.20;;
20241;SDS011;10279;46.388;8.116;2023-07-24T01:35:55;19.88;;;12.23;;
20241;SDS011;10279;46.388;8.116;2023-07-24T01:38:24;15.27;;;11.38;;
20241;SDS011;10279;46.388;8.116;2023-07-24T01:40:55;16.65;;;12.07;;
20241;SDS011;10279;46.388;8.116;2023-07-24T01:43:24;16.77;;;11.52;;
20241;SDS011;10279;46.388;8.116;2023-07-24T01:45:53;18.48;;;12.25;;
20241;SDS011;10279;46.388;8.116;2023-07-24T01:48:21;20.33;;;13.30;;
20241;SDS011;10279;46.388;8.116;2023-07-24T01:50:48;19.23;;;11.90;;
20241;SDS011;10279;46.388;8.116;2023-07-24T01:53:16;18.45;;;12.73;;
20241;SDS011;10279;46.388;8.116;2023-07-24T01:55:44;18.80;;;12.05;;
20241;SDS011;10279;46.388;8.116;2023-07-24T01:58:11;19.63;;;12.18;;
20241;SDS011;10279;46.388;8.116;2023-07-24T02:00:39;18.98;;;11.90;;
20241;SDS011;10279;46.388;8.116;2023-07-24T02:03:06;17.55;;;12.20;;
20241;SDS011;10279;46.388;8.116;2023-07-24T02:05:34;18.52;;;12.15;;
20241;SDS011;10279;46.388;8.116;2023-07-24T02:08:02;18.02;;;11.77;;
20241;SDS011;10279;46.388;8.116;2023-07-24T02:10:29;18.00;;;12.40;;
20241;SDS011;10279;46.388;8.116;2023-07-24T02:12:57;17.83;;;11.95;;
20241;SDS011;10279;46.388;8.116;2023-07-24T02:15:24;17.17;;;11.77;;
20241;SDS011;10279;46.388;8.116;2023-07-24T02:17:52;19.08;;;12.30;;
20241;SDS011;10279;46.388;8.116;2023-07-24T02:20:21;16.00;;;11.48;;
20241;SDS011;10279;46.388;8.116;2023-07-24T02:22:48;19.33;;;11.77;;
20241;SDS011;10279;46.388;8.116;2023-07-24T02:25:16;17.60;;;11.57;;
20241;SDS011;10279;46.388;8.116;2023-07-24T02:27:43;18.38;;;12.13;;
20241;SDS011;10279;46.388;8.116;2023-07-24T02:30:11;16.65;;;11.35;;
20241;SDS011;10279;46.388;8.116;2023-07-24T02:32:38;16.27;;;11.43;;
20241;SDS011;10279;46.388;8.116;2023-07-24T02:35:06;17.65;;;12.02;;
20241;SDS011;10279;46.388;8.116;2023-07-24T02:37:33;16.38;;;11.52;;
20241;SDS011;10279;46.388;8.116;2023-07-24T02:40:01;18.33;;;12.13;;
20241;SDS011;10279;46.388;8.116;2023-07-24T02:42:28;17.83;;;12.18;;
20241;SDS011;10279;46.388;8.116;2023-07-24T02:44:56;14.43;;;10.77;;
20241;SDS011;10279;46.388;8.116;2023-07-24T02:47:23;17.42;;;11.95;;
20241;SDS011;10279;46.388;8.116;2023-07-24T02:49:51;16.90;;;11.07;;
20241;SDS011;10279;46.388;8.116;2023-07-24T02:52:18;17.75;;;12.13;;
20241;SDS011;10279;46.388;8.116;2023-07-24T02:54:48;17.80;;;12.18;;
20241;SDS011;10279;46.388;8.116;2023-07-24T02:57:16;17.92;;;11.60;;
20241;SDS011;10279;46.388;8.116;2023-07-24T02:59:43;16.35;;;11.52;;
20241;SDS011;10279;46.388;8.116;2023-07-24T03:02:11;17.77;;;11.45;;
20241;SDS011;10279;46.388;8.116;2023-07-24T03:04:39;16.88;;;11.40;;
20241;SDS011;10279;46.388;8.116;2023-07-24T03:07:06;17.02;;;11.32;;
20241;SDS011;10279;46.388;8.116;2023-07-24T03:09:34;16.38;;;11.45;;
20241;SDS011;10279;46.388;8.116;2023-07-24T03:12:01;18.13;;;12.48;;
20241;SDS011;10279;46.388;8.116;2023-07-24T03:14:29;16.48;;;11.85;;
20241;SDS011;10279;46.388;8.116;2023-07-24T03:16:56;17.60;;;11.55;;
20241;SDS011;10279;46.388;8.116;2023-07-24T03:19:27;19.85;;;12.60;;
20241;SDS011;10279;46.388;8.116;2023-07-24T03:21:55;17.77;;;11.52;;
20241;SDS011;10279;46.388;8.116;2023-07-24T03:24:22;18.55;;;13.05;;
20241;SDS011;10279;46.388;8.116;2023-07-24T03:26:50;18.17;;;11.98;;
20241;SDS011;10279;46.388;8.116;2023-07-24T03:29:17;19.45;;;12.23;;
20241;SDS011;10279;46.388;8.116;2023-07-24T03:31:45;17.05;;;12.05;;
20241;SDS011;10279;46.388;8.116;2023-07-24T03:34:12;17.00;;;11.93;;
20241;SDS011;10279;46.388;8.116;2023-07-24T03:36:39;19.85;;;11.85;;
20241;SDS011;10279;46.388;8.116;2023-07-24T03:39:09;17.50;;;12.07;;
20241;SDS011;10279;46.388;8.116;2023-07-24T03:41:37;19.58;;;13.27;;
20241;SDS011;10279;46.388;8.116;2023-07-24T03:44:04;18.75;;;12.38;;
20241;SDS011;10279;46.388;8.116;2023-07-24T03:46:32;17.13;;;11.95;;
20241;SDS011;10279;46.388;8.116;2023-07-24T03:49:00;17.33;;;11.32;;
20241;SDS011;10279;46.388;8.116;2023-07-24T03:51:28;17.42;;;11.60;;
20241;SDS011;10279;46.388;8.116;2023-07-24T03:53:55;17.38;;;11.95;;
20241;SDS011;10279;46.388;8.116;2023-07-24T03:56:25;18.42;;;11.70;;
20241;SDS011;10279;46.388;8.116;2023-07-24T03:58:53;15.93;;;11.20;;
20241;SDS011;10279;46.388;8.116;2023-07-24T04:01:21;14.98;;;11.35;;
20241;SDS011;10279;46.388;8.116;2023-07-24T04:03:48;18.58;;;12.25;;
20241;SDS011;10279;46.388;8.116;2023-07-24T04:06:16;19.42;;;12.25;;
20241;SDS011;10279;46.388;8.116;2023-07-24T04:08:44;18.38;;;12.10;;
20241;SDS011;10279;46.388;8.116;2023-07-24T04:11:11;18.92;;;11.88;;
20241;SDS011;10279;46.388;8.116;2023-07-24T04:13:38;18.52;;;11.20;;
20241;SDS011;10279;46.388;8.116;2023-07-24T04:16:06;18.20;;;11.77;;
20241;SDS011;10279;46.388;8.116;2023-07-24T04:18:33;18.00;;;12.23;;
20241;SDS011;10279;46.388;8.116;2023-07-24T04:21:01;19.42;;;11.55;;
20241;SDS011;10279;46.388;8.116;2023-07-24T04:23:28;21.45;;;12.80;;
20241;SDS011;10279;46.388;8.116;2023-07-24T04:25:56;21.25;;;12.60;;
20241;SDS011;10279;46.388;8.116;2023-07-24T04:28:24;23.23;;;13.75;;
20241;SDS011;10279;46.388;8.116;2023-07-24T04:30:52;17.73;;;12.50;;
20241;SDS011;10279;46.388;8.116;2023-07-24T04:33:19;21.55;;;12.98;;
20241;SDS011;10279;46.388;8.116;2023-07-24T04:35:48;17.30;;;12.57;;
20241;SDS011;10279;46.388;8.116;2023-07-24T04:38:16;16.38;;;9.48;;
20241;SDS011;10279;46.388;8.116;2023-07-24T04:40:43;11.80;;;7.93;;
20241;SDS011;10279;46.388;8.116;2023-07-24T04:43:11;14.27;;;9.35;;
20241;SDS011;10279;46.388;8.116;2023-07-24T04:45:39;14.88;;;10.50;;
20241;SDS011;10279;46.388;8.116;2023-07-24T04:48:07;15.60;;;10.32;;
20241;SDS011;10279;46.388;8.116;2023-07-24T04:50:34;18.85;;;11.68;;
20241;SDS011;10279;46.388;8.116;2023-07-24T04:53:01;17.45;;;11.07;;
20241;SDS011;10279;46.388;8.116;2023-07-24T04:55:29;15.15;;;10.43;;
20241;SDS011;10279;46.388;8.116;2023-07-24T04:57:56;14.20;;;10.18;;
20241;SDS011;10279;46.388;8.116;2023-07-24T05:00:27;15.18;;;10.02;;
20241;SDS011;10279;46.388;8.116;2023-07-24T05:02:54;16.38;;;10.00;;
20241;SDS011;10279;46.388;8.116;2023-07-24T05:05:22;16.58;;;9.98;;
20241;SDS011;10279;46.388;8.116;2023-07-24T05:07:49;18.98;;;10.48;;
20241;SDS011;10279;46.388;8.116;2023-07-24T05:10:17;17.45;;;10.60;;
20241;SDS011;10279;46.388;8.116;2023-07-24T05:12:44;14.55;;;10.15;;
20241;SDS011;10279;46.388;8.116;2023-07-24T05:15:12;15.20;;;10.68;;
20241;SDS011;10279;46.388;8.116;2023-07-24T05:17:43;13.27;;;10.27;;
20241;SDS011;10279;46.388;8.116;2023-07-24T05:20:11;14.48;;;9.45;;
20241;SDS011;10279;46.388;8.116;2023-07-24T05:22:38;14.88;;;9.48;;
20241;SDS011;10279;46.388;8.116;2023-07-24T05:25:06;16.70;;;9.18;;
20241;SDS011;10279;46.388;8.116;2023-07-24T05:27:34;14.30;;;9.18;;
20241;SDS011;10279;46.388;8.116;2023-07-24T05:30:02;11.80;;;8.35;;
20241;SDS011;10279;46.388;8.116;2023-07-24T05:32:30;17.70;;;11.40;;
20241;SDS011;10279;46.388;8.116;2023-07-24T05:34:57;15.75;;;9.30;;
20241;SDS011;10279;46.388;8.116;2023-07-24T05:37:25;12.25;;;7.78;;
20241;SDS011;10279;46.388;8.116;2023-07-24T05:39:52;12.35;;;8.40;;
20241;SDS011;10279;46.388;8.116;2023-07-24T05:42:19;12.55;;;7.90;;
20241;SDS011;10279;46.388;8.116;2023-07-24T05:44:47;11.57;;;8.02;;
20241;SDS011;10279;46.388;8.116;2023-07-24T05:47:14;16.50;;;8.00;;
20241;SDS011;10279;46.388;8.116;2023-07-24T05:49:42;15.10;;;7.90;;
20241;SDS011;10279;46.388;8.116;2023-07-24T05:52:09;9.50;;;6.75;;
20241;SDS011;10279;46.388;8.116;2023-07-24T05:54:37;10.43;;;6.13;;
20241;SDS011;10279;46.388;8.116;2023-07-24T05:57:04;9.48;;;7.05;;
20241;SDS011;10279;46.388;8.116;2023-07-24T05:59:32;12.13;;;7.18;;
20241;SDS011;10279;46.388;8.116;2023-07-24T06:01:59;11.98;;;7.70;;
20241;SDS011;10279;46.388;8.116;2023-07-24T06:04:27;11.00;;;7.03;;
20241;SDS011;10279;46.388;8.116;2023-07-24T06:06:55;10.43;;;7.35;;
20241;SDS011;10279;46.388;8.116;2023-07-24T06:09:22;10.70;;;7.18;;
20241;SDS011;10279;46.388;8.116;2023-07-24T06:11:50;10.45;;;7.22;;
20241;SDS011;10279;46.388;8.116;2023-07-24T06:14:18;11.23;;;6.88;;
20241;SDS011;10279;46.388;8.116;2023-07-24T06:16:45;10.77;;;7.00;;
20241;SDS011;10279;46.388;8.116;2023-07-24T06:19:13;9.85;;;6.72;;
20241;SDS011;10279;46.388;8.116;2023-07-24T06:21:41;12.35;;;6.53;;
20241;SDS011;10279;46.388;8.116;2023-07-24T06:24:08;8.82;;;5.63;;
20241;SDS011;10279;46.388;8.116;2023-07-24T06:26:39;10.70;;;5.90;;
20241;SDS011;10279;46.388;8.116;2023-07-24T06:29:06;9.75;;;6.10;;
20241;SDS011;10279;46.388;8.116;2023-07-24T06:31:33;9.07;;;5.38;;
20241;SDS011;10279;46.388;8.116;2023-07-24T06:34:01;9.65;;;5.93;;
20241;SDS011;10279;46.388;8.116;2023-07-24T06:36:29;11.27;;;6.50;;
20241;SDS011;10279;46.388;8.116;2023-07-24T06:38:57;11.02;;;5.85;;
20241;SDS011;10279;46.388;8.116;2023-07-24T06:41:24;11.05;;;6.43;;
20241;SDS011;10279;46.388;8.116;2023-07-24T06:43:52;9.52;;;6.13;;
20241;SDS011;10279;46.388;8.116;2023-07-24T06:46:19;9.18;;;5.97;;
20241;SDS011;10279;46.388;8.116;2023-07-24T06:48:47;12.63;;;6.90;;
20241;SDS011;10279;46.388;8.116;2023-07-24T06:51:14;10.85;;;6.63;;
20241;SDS011;10279;46.388;8.116;2023-07-24T06:53:42;9.13;;;6.68;;
20241;SDS011;10279;46.388;8.116;2023-07-24T06:56:09;9.02;;;6.40;;
20241;SDS011;10279;46.388;8.116;2023-07-24T06:58:37;12.13;;;6.78;;
20241;SDS011;10279;46.388;8.116;2023-07-24T07:01:05;12.85;;;7.03;;
20241;SDS011;10279;46.388;8.116;2023-07-24T07:03:33;10.15;;;6.05;;
20241;SDS011;10279;46.388;8.116;2023-07-24T07:06:01;8.80;;;6.25;;
20241;SDS011;10279;46.388;8.116;2023-07-24T07:08:29;10.88;;;6.93;;
20241;SDS011;10279;46.388;8.116;2023-07-24T07:10:58;9.30;;;5.85;;
20241;SDS011;10279;46.388;8.116;2023-07-24T07:13:26;11.13;;;5.95;;
20241;SDS011;10279;46.388;8.116;2023-07-24T07:15:53;9.70;;;5.75;;
20241;SDS011;10279;46.388;8.116;2023-07-24T07:18:21;10.77;;;5.93;;
20241;SDS011;10279;46.388;8.116;2023-07-24T07:20:49;9.90;;;6.13;;
20241;SDS011;10279;46.388;8.116;2023-07-24T07:23:17;9.43;;;5.90;;
20241;SDS011;10279;46.388;8.116;2023-07-24T07:25:45;10.23;;;5.82;;
20241;SDS011;10279;46.388;8.116;2023-07-24T07:28:13;11.38;;;6.70;;
20241;SDS011;10279;46.388;8.116;2023-07-24T07:30:40;8.52;;;5.40;;
20241;SDS011;10279;46.388;8.116;2023-07-24T07:33:11;10.13;;;4.97;;
20241;SDS011;10279;46.388;8.116;2023-07-24T07:35:38;8.75;;;5.60;;
20241;SDS011;10279;46.388;8.116;2023-07-24T07:38:06;8.48;;;5.40;;
20241;SDS011;10279;46.388;8.116;2023-07-24T07:40:33;8.27;;;5.32;;
20241;SDS011;10279;46.388;8.116;2023-07-24T07:43:01;11.48;;;6.13;;
20241;SDS011;10279;46.388;8.116;2023-07-24T07:45:28;7.53;;;5.80;;
20241;SDS011;10279;46.388;8.116;2023-07-24T07:47:56;8.48;;;5.47;;
20241;SDS011;10279;46.388;8.116;2023-07-24T07:50:23;8.75;;;5.85;;
20241;SDS011;10279;46.388;8.116;2023-07-24T07:52:51;7.00;;;5.15;;
20241;SDS011;10279;46.388;8.116;2023-07-24T07:55:19;6.30;;;4.95;;
20241;SDS011;10279;46.388;8.116;2023-07-24T07:57:47;8.60;;;5.00;;
20241;SDS011;10279;46.388;8.116;2023-07-24T08:00:14;6.85;;;5.03;;
20241;SDS011;10279;46.388;8.116;2023-07-24T08:02:42;6.22;;;4.40;;
20241;SDS011;10279;46.388;8.116;2023-07-24T08:05:10;6.55;;;4.78;;
20241;SDS011;10279;46.388;8.116;2023-07-24T08:07:46;7.05;;;4.50;;
20241;SDS011;10279;46.388;8.116;2023-07-24T08:10:14;6.93;;;4.95;;
20241;SDS011;10279;46.388;8.116;2023-07-24T08:12:43;8.20;;;5.03;;
20241;SDS011;10279;46.388;8.116;2023-07-24T08:15:11;9.50;;;5.35;;
20241;SDS011;10279;46.388;8.116;2023-07-24T08:17:39;7.38;;;5.00;;
20241;SDS011;10279;46.388;8.116;2023-07-24T08:20:06;7.45;;;5.70;;
20241;SDS011;10279;46.388;8.116;2023-07-24T08:22:34;8.10;;;6.00;;
20241;SDS011;10279;46.388;8.116;2023-07-24T08:25:02;12.15;;;6.10;;
20241;SDS011;10279;46.388;8.116;2023-07-24T08:27:29;13.10;;;6.75;;
20241;SDS011;10279;46.388;8.116;2023-07-24T08:29:57;8.65;;;5.72;;
20241;SDS011;10279;46.388;8.116;2023-07-24T08:32:24;7.68;;;5.60;;
20241;SDS011;10279;46.388;8.116;2023-07-24T08:34:52;8.52;;;5.95;;
20241;SDS011;10279;46.388;8.116;2023-07-24T08:37:19;9.18;;;6.30;;
20241;SDS011;10279;46.388;8.116;2023-07-24T08:39:47;9.82;;;6.45;;
20241;SDS011;10279;46.388;8.116;2023-07-24T08:42:14;10.75;;;6.40;;
20241;SDS011;10279;46.388;8.116;2023-07-24T08:44:42;7.05;;;5.18;;
20241;SDS011;10279;46.388;8.116;2023-07-24T08:47:10;8.75;;;6.13;;
20241;SDS011;10279;46.388;8.116;2023-07-24T08:49:39;9.50;;;6.18;;
20241;SDS011;10279;46.388;8.116;2023-07-24T08:52:07;10.48;;;6.95;;
20241;SDS011;10279;46.388;8.116;2023-07-24T08:54:39;10.25;;;6.55;;
20241;SDS011;10279;46.388;8.116;2023-07-24T08:57:07;8.80;;;6.15;;
20241;SDS011;10279;46.388;8.116;2023-07-24T08:59:34;10.23;;;6.53;;
20241;SDS011;10279;46.388;8.116;2023-07-24T09:02:02;10.38;;;6.40;;
20241;SDS011;10279;46.388;8.116;2023-07-24T09:04:31;10.50;;;6.63;;
20241;SDS011;10279;46.388;8.116;2023-07-24T09:06:58;9.57;;;6.32;;
20241;SDS011;10279;46.388;8.116;2023-07-24T09:09:29;9.82;;;6.28;;
20241;SDS011;10279;46.388;8.116;2023-07-24T09:11:57;10.80;;;7.00;;
20241;SDS011;10279;46.388;8.116;2023-07-24T09:14:27;10.98;;;6.72;;
20241;SDS011;10279;46.388;8.116;2023-07-24T09:17:10;10.23;;;6.32;;
20241;SDS011;10279;46.388;8.116;2023-07-24T09:19:38;11.80;;;7.28;;
20241;SDS011;10279;46.388;8.116;2023-07-24T09:22:14;9.05;;;6.63;;
20241;SDS011;10279;46.388;8.116;2023-07-24T09:24:51;10.00;;;6.13;;
20241;SDS011;10279;46.388;8.116;2023-07-24T09:27:19;9.32;;;6.50;;
20241;SDS011;10279;46.388;8.116;2023-07-24T09:29:48;12.15;;;7.60;;
20241;SDS011;10279;46.388;8.116;2023-07-24T09:32:22;10.13;;;6.28;;
20241;SDS011;10279;46.388;8.116;2023-07-24T09:34:50;7.22;;;5.40;;
20241;SDS011;10279;46.388;8.116;2023-07-24T09:37:24;8.63;;;5.45;;
20241;SDS011;10279;46.388;8.116;2023-07-24T09:39:52;12.45;;;6.20;;
20241;SDS011;10279;46.388;8.116;2023-07-24T09:42:38;17.08;;;6.93;;
20241;SDS011;10279;46.388;8.116;2023-07-24T09:45:29;9.90;;;5.40;;
20241;SDS011;10279;46.388;8.116;2023-07-24T09:48:01;8.88;;;5.30;;
20241;SDS011;10279;46.388;8.116;2023-07-24T09:50:35;8.07;;;4.82;;
20241;SDS011;10279;46.388;8.116;2023-07-24T09:53:02;6.50;;;5.05;;
20241;SDS011;10279;46.388;8.116;2023-07-24T09:55:32;6.85;;;5.07;;
20241;SDS011;10279;46.388;8.116;2023-07-24T09:58:02;6.85;;;5.38;;
20241;SDS011;10279;46.388;8.116;2023-07-24T10:00:34;7.57;;;5.32;;
20241;SDS011;10279;46.388;8.116;2023-07-24T10:03:01;7.78;;;5.22;;
20241;SDS011;10279;46.388;8.116;2023-07-24T10:05:29;7.82;;;5.18;;
20241;SDS011;10279;46.388;8.116;2023-07-24T10:07:57;6.80;;;5.78;;
20241;SDS011;10279;46.388;8.116;2023-07-24T10:10:25;11.40;;;5.28;;
20241;SDS011;10279;46.388;8.116;2023-07-24T10:12:55;8.68;;;6.00;;
20241;SDS011;10279;46.388;8.116;2023-07-24T10:15:23;9.30;;;6.03;;
20241;SDS011;10279;46.388;8.116;2023-07-24T10:18:00;8.75;;;6.30;;
20241;SDS011;10279;46.388;8.116;2023-07-24T10:20:32;8.52;;;5.13;;
20241;SDS011;10279;46.388;8.116;2023-07-24T10:23:03;8.88;;;5.32;;
20241;SDS011;10279;46.388;8.116;2023-07-24T10:25:31;7.10;;;4.82;;
20241;SDS011;10279;46.388;8.116;2023-07-24T10:28:06;8.05;;;5.50;;
20241;SDS011;10279;46.388;8.116;2023-07-24T10:30:42;7.03;;;5.60;;
20241;SDS011;10279;46.388;8.116;2023-07-24T10:33:11;7.15;;;4.95;;
20241;SDS011;10279;46.388;8.116;2023-07-24T10:38:08;7.40;;;5.43;;
20241;SDS011;10279;46.388;8.116;2023-07-24T10:40:35;6.80;;;5.00;;
20241;SDS011;10279;46.388;8.116;2023-07-24T10:43:07;8.48;;;4.90;;
20241;SDS011;10279;46.388;8.116;2023-07-24T10:48:09;6.82;;;4.88;;
20241;SDS011;10279;46.388;8.116;2023-07-24T10:50:39;6.80;;;4.80;;
20241;SDS011;10279;46.388;8.116;2023-07-24T10:53:08;7.90;;;5.13;;
20241;SDS011;10279;46.388;8.116;2023-07-24T10:55:36;7.47;;;4.88;;
20241;SDS011;10279;46.388;8.116;2023-07-24T10:58:03;8.40;;;6.15;;
20241;SDS011;10279;46.388;8.116;2023-07-24T11:00:31;7.53;;;5.18;;
20241;SDS011;10279;46.388;8.116;2023-07-24T11:03:02;6.75;;;4.05;;
20241;SDS011;10279;46.388;8.116;2023-07-24T11:05:30;6.95;;;4.72;;
20241;SDS011;10279;46.388;8.116;2023-07-24T11:07:57;8.63;;;4.75;;
20241;SDS011;10279;46.388;8.116;2023-07-24T11:10:25;10.88;;;4.60;;
20241;SDS011;10279;46.388;8.116;2023-07-24T11:12:53;6.35;;;4.38;;
20241;SDS011;10279;46.388;8.116;2023-07-24T11:15:24;8.35;;;4.65;;
20241;SDS011;10279;46.388;8.116;2023-07-24T11:17:53;7.07;;;4.35;;
20241;SDS011;10279;46.388;8.116;2023-07-24T11:20:22;8.40;;;4.15;;
20241;SDS011;10279;46.388;8.116;2023-07-24T11:22:49;6.95;;;5.30;;
20241;SDS011;10279;46.388;8.116;2023-07-24T11:25:17;7.18;;;5.13;;
20241;SDS011;10279;46.388;8.116;2023-07-24T11:27:44;4.57;;;3.53;;
20241;SDS011;10279;46.388;8.116;2023-07-24T11:30:18;6.72;;;4.57;;
20241;SDS011;10279;46.388;8.116;2023-07-24T11:32:46;8.48;;;5.63;;
20241;SDS011;10279;46.388;8.116;2023-07-24T11:35:14;6.50;;;4.28;;
20241;SDS011;10279;46.388;8.116;2023-07-24T11:37:42;5.47;;;4.20;;
20241;SDS011;10279;46.388;8.116;2023-07-24T11:40:09;7.85;;;4.43;;
20241;SDS011;10279;46.388;8.116;2023-07-24T11:42:44;5.75;;;4.03;;
20241;SDS011;10279;46.388;8.116;2023-07-24T11:45:12;5.90;;;4.05;;
20241;SDS011;10279;46.388;8.116;2023-07-24T11:47:46;6.00;;;3.85;;
20241;SDS011;10279;46.388;8.116;2023-07-24T11:50:15;3.55;;;3.05;;
20241;SDS011;10279;46.388;8.116;2023-07-24T11:52:44;7.18;;;3.67;;
20241;SDS011;10279;46.388;8.116;2023-07-24T11:55:13;5.70;;;3.40;;
20241;SDS011;10279;46.388;8.116;2023-07-24T11:57:41;4.43;;;3.35;;
20241;SDS011;10279;46.388;8.116;2023-07-24T12:00:19;5.38;;;3.95;;
20241;SDS011;10279;46.388;8.116;2023-07-24T12:02:47;4.88;;;3.53;;
20241;SDS011;10279;46.388;8.116;2023-07-24T12:05:15;6.47;;;4.05;;
20241;SDS011;10279;46.388;8.116;2023-07-24T12:07:43;6.38;;;4.13;;
20241;SDS011;10279;46.388;8.116;2023-07-24T12:10:24;5.55;;;3.67;;
20241;SDS011;10279;46.388;8.116;2023-07-24T12:12:54;4.15;;;3.72;;
20241;SDS011;10279;46.388;8.116;2023-07-24T12:15:21;6.57;;;3.78;;
20241;SDS011;10279;46.388;8.116;2023-07-24T12:17:49;5.45;;;3.97;;
20241;SDS011;10279;46.388;8.116;2023-07-24T12:20:16;5.05;;;4.00;;
20241;SDS011;10279;46.388;8.116;2023-07-24T12:22:44;4.88;;;3.40;;
20241;SDS011;10279;46.388;8.116;2023-07-24T12:25:12;3.85;;;3.30;;
20241;SDS011;10279;46.388;8.116;2023-07-24T12:27:40;4.63;;;3.20;;
20241;SDS011;10279;46.388;8.116;2023-07-24T12:30:08;3.72;;;3.00;;
20241;SDS011;10279;46.388;8.116;2023-07-24T12:32:37;4.38;;;3.28;;
20241;SDS011;10279;46.388;8.116;2023-07-24T12:35:05;3.83;;;2.92;;
20241;SDS011;10279;46.388;8.116;2023-07-24T12:37:32;3.45;;;3.15;;
20241;SDS011;10279;46.388;8.116;2023-07-24T12:40:00;5.60;;;3.25;;
20241;SDS011;10279;46.388;8.116;2023-07-24T12:42:27;4.78;;;3.15;;
20241;SDS011;10279;46.388;8.116;2023-07-24T12:44:55;6.07;;;3.75;;
20241;SDS011;10279;46.388;8.116;2023-07-24T12:47:24;4.43;;;3.42;;
20241;SDS011;10279;46.388;8.116;2023-07-24T12:49:52;4.95;;;3.35;;
20241;SDS011;10279;46.388;8.116;2023-07-24T12:52:22;5.30;;;3.20;;
20241;SDS011;10279;46.388;8.116;2023-07-24T12:54:49;4.85;;;3.55;;
20241;SDS011;10279;46.388;8.116;2023-07-24T12:57:27;6.40;;;4.00;;
20241;SDS011;10279;46.388;8.116;2023-07-24T12:59:55;5.55;;;3.63;;
20241;SDS011;10279;46.388;8.116;2023-07-24T13:02:22;7.55;;;4.20;;
20241;SDS011;10279;46.388;8.116;2023-07-24T13:04:50;5.90;;;4.00;;
20241;SDS011;10279;46.388;8.116;2023-07-24T13:07:18;4.45;;;3.60;;
20241;SDS011;10279;46.388;8.116;2023-07-24T13:09:45;4.20;;;3.50;;
20241;SDS011;10279;46.388;8.116;2023-07-24T13:12:13;5.78;;;4.57;;
20241;SDS011;10279;46.388;8.116;2023-07-24T13:14:40;4.07;;;3.58;;
20241;SDS011;10279;46.388;8.116;2023-07-24T13:17:09;9.90;;;3.85;;
20241;SDS011;10279;46.388;8.116;2023-07-24T13:19:36;5.63;;;3.53;;
20241;SDS011;10279;46.388;8.116;2023-07-24T13:22:04;4.88;;;3.78;;
20241;SDS011;10279;46.388;8.116;2023-07-24T13:24:32;7.32;;;4.18;;
20241;SDS011;10279;46.388;8.116;2023-07-24T13:26:59;5.15;;;3.92;;
20241;SDS011;10279;46.388;8.116;2023-07-24T13:29:29;6.28;;;3.53;;
20241;SDS011;10279;46.388;8.116;2023-07-24T13:31:57;5.97;;;4.13;;
20241;SDS011;10279;46.388;8.116;2023-07-24T13:34:25;6.38;;;4.15;;
20241;SDS011;10279;46.388;8.116;2023-07-24T13:36:52;5.68;;;4.45;;
20241;SDS011;10279;46.388;8.116;2023-07-24T13:39:21;5.00;;;3.92;;
20241;SDS011;10279;46.388;8.116;2023-07-24T13:41:48;5.60;;;4.10;;
20241;SDS011;10279;46.388;8.116;2023-07-24T13:44:16;8.13;;;4.20;;
20241;SDS011;10279;46.388;8.116;2023-07-24T13:46:43;5.47;;;4.20;;
20241;SDS011;10279;46.388;8.116;2023-07-24T13:49:11;5.93;;;4.38;;
20241;SDS011;10279;46.388;8.116;2023-07-24T13:51:39;5.30;;;3.80;;
20241;SDS011;10279;46.388;8.116;2023-07-24T13:54:06;5.07;;;3.83;;
20241;SDS011;10279;46.388;8.116;2023-07-24T13:56:33;6.57;;;4.25;;
20241;SDS011;10279;46.388;8.116;2023-07-24T13:59:04;5.22;;;4.22;;
20241;SDS011;10279;46.388;8.116;2023-07-24T14:01:32;5.35;;;4.15;;
20241;SDS011;10279;46.388;8.116;2023-07-24T14:04:00;5.13;;;3.70;;
20241;SDS011;10279;46.388;8.116;2023-07-24T14:06:28;8.30;;;3.97;;
20241;SDS011;10279;46.388;8.116;2023-07-24T14:08:55;4.93;;;3.60;;
20241;SDS011;10279;46.388;8.116;2023-07-24T14:11:23;6.30;;;4.30;;
20241;SDS011;10279;46.388;8.116;2023-07-24T14:13:51;8.82;;;5.00;;
20241;SDS011;10279;46.388;8.116;2023-07-24T14:16:18;8.25;;;4.13;;
20241;SDS011;10279;46.388;8.116;2023-07-24T14:18:46;6.57;;;4.03;;
20241;SDS011;10279;46.388;8.116;2023-07-24T14:21:13;7.65;;;4.38;;
20241;SDS011;10279;46.388;8.116;2023-07-24T14:23:42;6.40;;;3.97;;
20241;SDS011;10279;46.388;8.116;2023-07-24T14:26:09;7.25;;;4.55;;
20241;SDS011;10279;46.388;8.116;2023-07-24T14:28:37;5.45;;;3.85;;
20241;SDS011;10279;46.388;8.116;2023-07-24T14:31:07;5.20;;;3.47;;
20241;SDS011;10279;46.388;8.116;2023-07-24T14:33:35;5.78;;;3.67;;
20241;SDS011;10279;46.388;8.116;2023-07-24T14:36:02;3.83;;;2.80;;
20241;SDS011;10279;46.388;8.116;2023-07-24T14:38:30;6.07;;;3.40;;
20241;SDS011;10279;46.388;8.116;2023-07-24T14:40:57;6.20;;;3.67;;
20241;SDS011;10279;46.388;8.116;2023-07-24T14:43:25;5.75;;;3.25;;
20241;SDS011;10279;46.388;8.116;2023-07-24T14:45:52;3.78;;;2.85;;
20241;SDS011;10279;46.388;8.116;2023-07-24T14:48:20;6.65;;;3.20;;
20241;SDS011;10279;46.388;8.116;2023-07-24T14:50:47;5.65;;;3.60;;